Time;durP1;ratioP1;P1;durP2;ratioP2;P2;SDS_P1;SDS_P2;PMS_P1;PMS_P2;Temp;Humidity;BMP_temperature;BMP_pressure;BME280_temperature;BME280_humidity;BME280_pressure;Samples;Min_cycle;Max_cycle;Signal;HPM_P1;HPM_P2
2023/12/29 00:02:15;;;;;;;10.03;5.60;;;;;;;;;;5030817;28;20742;-65
2023/12/29 00:04:40;;;;;;;7.50;4.43;;;;;;;;;;5031584;28;20017;-65
2023/12/29 00:07:05;;;;;;;8.13;5.90;;;;;;;;;;5031694;28;20036;-65
2023/12/29 00:09:37;;;;;;;9.18;5.32;;;;;;;;;;5030854;28;20259;-65
2023/12/29 00:12:03;;;;;;;7.68;4.88;;;;;;;;;;5031560;28;20071;-64
2023/12/29 00:14:28;;;;;;;7.13;4.70;;;;;;;;;;5030773;28;20478;-65
2023/12/29 00:16:57;;;;;;;6.83;4.97;;;;;;;;;;5031373;28;20041;-64
2023/12/29 00:19:22;;;;;;;9.55;5.47;;;;;;;;;;5030951;28;20025;-65
2023/12/29 00:21:47;;;;;;;8.93;5.20;;;;;;;;;;5030344;28;20032;-65
2023/12/29 00:24:12;;;;;;;8.70;5.47;;;;;;;;;;5030919;28;20270;-65
2023/12/29 00:26:38;;;;;;;16.30;4.90;;;;;;;;;;5031188;28;20673;-65
2023/12/29 00:29:03;;;;;;;7.40;4.50;;;;;;;;;;5031222;28;20283;-65
2023/12/29 00:31:28;;;;;;;6.90;4.27;;;;;;;;;;5030376;28;20424;-65
2023/12/29 00:33:53;;;;;;;8.32;5.10;;;;;;;;;;5030065;28;20614;-65
2023/12/29 00:36:19;;;;;;;7.40;5.30;;;;;;;;;;5030967;28;20022;-65
2023/12/29 00:38:44;;;;;;;10.55;5.53;;;;;;;;;;5030371;28;20029;-65
2023/12/29 00:41:10;;;;;;;7.32;4.60;;;;;;;;;;5032431;28;20384;-65
2023/12/29 00:43:35;;;;;;;6.47;4.55;;;;;;;;;;5034233;28;20124;-65
2023/12/29 00:46:01;;;;;;;8.95;4.50;;;;;;;;;;5033890;28;20064;-65
2023/12/29 00:48:26;;;;;;;6.57;4.28;;;;;;;;;;5035042;28;20027;-65
2023/12/29 00:50:51;;;;;;;8.03;4.60;;;;;;;;;;5034627;28;20108;-65
2023/12/29 00:53:16;;;;;;;5.57;4.10;;;;;;;;;;5034694;28;20680;-64
2023/12/29 00:55:42;;;;;;;6.23;3.83;;;;;;;;;;5033706;28;20258;-65
2023/12/29 00:58:07;;;;;;;6.93;4.20;;;;;;;;;;5034165;28;20080;-65
2023/12/29 01:00:32;;;;;;;7.53;4.20;;;;;;;;;;5034451;28;20396;-65
2023/12/29 01:02:57;;;;;;;5.55;3.78;;;;;;;;;;5034735;28;20324;-65
2023/12/29 01:05:23;;;;;;;7.97;3.80;;;;;;;;;;5033565;28;20052;-65
2023/12/29 01:07:48;;;;;;;6.23;4.13;;;;;;;;;;5034544;28;20469;-65
2023/12/29 01:10:13;;;;;;;4.90;3.57;;;;;;;;;;5034333;28;20746;-65
2023/12/29 01:12:38;;;;;;;6.70;4.03;;;;;;;;;;5033652;28;20266;-65
2023/12/29 01:15:04;;;;;;;5.53;3.73;;;;;;;;;;5034033;28;20743;-65
2023/12/29 01:17:29;;;;;;;5.05;3.80;;;;;;;;;;5033928;28;20271;-65
2023/12/29 01:19:54;;;;;;;6.27;4.10;;;;;;;;;;5034439;28;20060;-65
2023/12/29 01:22:20;;;;;;;7.45;4.70;;;;;;;;;;5034622;28;20669;-65
2023/12/29 01:24:45;;;;;;;6.22;4.18;;;;;;;;;;5033227;28;20025;-65
2023/12/29 01:27:10;;;;;;;7.67;4.40;;;;;;;;;;5033913;28;20053;-65
2023/12/29 01:29:35;;;;;;;7.87;4.83;;;;;;;;;;5033025;28;20269;-65
2023/12/29 01:32:03;;;;;;;5.13;4.03;;;;;;;;;;5032782;28;20270;-65
2023/12/29 01:34:32;;;;;;;7.80;4.50;;;;;;;;;;5033932;28;20064;-65
2023/12/29 01:36:57;;;;;;;6.82;4.90;;;;;;;;;;5033859;28;20058;-65
2023/12/29 01:39:22;;;;;;;7.00;4.13;;;;;;;;;;5031937;28;20061;-65
2023/12/29 01:41:48;;;;;;;5.87;4.10;;;;;;;;;;5033937;28;20034;-65
2023/12/29 01:44:20;;;;;;;5.90;4.40;;;;;;;;;;5034131;28;20030;-65
2023/12/29 01:46:47;;;;;;;12.63;5.05;;;;;;;;;;5033719;28;20030;-65
2023/12/29 01:49:19;;;;;;;10.13;4.60;;;;;;;;;;5034002;28;20022;-65
2023/12/29 01:51:46;;;;;;;7.00;4.60;;;;;;;;;;5032822;28;20385;-65
2023/12/29 01:54:11;;;;;;;8.18;5.38;;;;;;;;;;5032749;28;20076;-65
2023/12/29 01:56:37;;;;;;;9.68;5.03;;;;;;;;;;5033669;28;20531;-65
2023/12/29 01:59:03;;;;;;;10.98;5.40;;;;;;;;;;5032604;28;20053;-65
2023/12/29 02:01:29;;;;;;;7.82;4.47;;;;;;;;;;5033864;28;20369;-65
2023/12/29 02:03:54;;;;;;;6.10;4.40;;;;;;;;;;5032766;28;20025;-65
2023/12/29 02:06:19;;;;;;;10.63;5.30;;;;;;;;;;5033445;28;20264;-65
2023/12/29 02:08:44;;;;;;;7.72;4.90;;;;;;;;;;5033368;28;20063;-65
2023/12/29 02:11:10;;;;;;;7.32;4.70;;;;;;;;;;5032446;28;20025;-65
2023/12/29 02:13:35;;;;;;;11.18;5.43;;;;;;;;;;5033165;28;20068;-65
2023/12/29 02:16:02;;;;;;;9.40;5.33;;;;;;;;;;5033145;28;20108;-65
2023/12/29 02:18:29;;;;;;;10.55;5.13;;;;;;;;;;5032409;28;20833;-65
2023/12/29 02:20:54;;;;;;;15.80;5.55;;;;;;;;;;5033567;28;20024;-65
2023/12/29 02:23:19;;;;;;;8.33;5.23;;;;;;;;;;5033433;28;20412;-64
2023/12/29 02:25:45;;;;;;;8.63;4.90;;;;;;;;;;5031926;28;20762;-65
2023/12/29 02:28:26;;;;;;;9.30;5.13;;;;;;;;;;5031874;28;20278;-64
2023/12/29 02:31:00;;;;;;;13.60;5.73;;;;;;;;;;5032241;28;20258;-65
2023/12/29 02:33:26;;;;;;;9.02;5.97;;;;;;;;;;5033123;28;20120;-65
2023/12/29 02:35:52;;;;;;;8.70;5.65;;;;;;;;;;5032052;28;20070;-65
2023/12/29 02:38:18;;;;;;;7.50;4.90;;;;;;;;;;5033162;28;20033;-65
2023/12/29 02:40:43;;;;;;;9.00;5.20;;;;;;;;;;5032545;28;20037;-65
2023/12/29 02:43:08;;;;;;;8.10;4.75;;;;;;;;;;5031812;28;20252;-65
2023/12/29 02:45:34;;;;;;;7.38;4.47;;;;;;;;;;5032618;28;20029;-65
2023/12/29 02:47:59;;;;;;;7.20;4.73;;;;;;;;;;5032823;28;20026;-65
2023/12/29 02:50:24;;;;;;;6.43;4.87;;;;;;;;;;5031938;28;20263;-65
2023/12/29 02:52:49;;;;;;;7.43;4.60;;;;;;;;;;5032433;28;20262;-65
2023/12/29 02:55:14;;;;;;;6.00;4.10;;;;;;;;;;5031863;28;20267;-65
2023/12/29 02:57:40;;;;;;;6.60;4.40;;;;;;;;;;5032067;28;20267;-65
2023/12/29 03:00:05;;;;;;;8.35;4.70;;;;;;;;;;5031559;28;20618;-65
2023/12/29 03:02:31;;;;;;;6.07;4.07;;;;;;;;;;5030153;28;20040;-65
2023/12/29 03:04:56;;;;;;;8.45;4.47;;;;;;;;;;5032094;28;20106;-65
2023/12/29 03:07:21;;;;;;;8.05;4.05;;;;;;;;;;5032523;28;20025;-64
2023/12/29 03:09:47;;;;;;;8.23;4.78;;;;;;;;;;5031018;28;20461;-65
2023/12/29 03:12:12;;;;;;;8.40;4.72;;;;;;;;;;5032355;28;20021;-65
2023/12/29 03:14:38;;;;;;;7.00;4.80;;;;;;;;;;5031373;28;20358;-65
2023/12/29 03:17:03;;;;;;;11.20;4.93;;;;;;;;;;5030850;28;20045;-65
2023/12/29 03:19:28;;;;;;;9.45;5.05;;;;;;;;;;5031966;28;20032;-65
2023/12/29 03:21:54;;;;;;;7.33;4.43;;;;;;;;;;5032007;28;20135;-65
2023/12/29 03:24:19;;;;;;;11.63;5.70;;;;;;;;;;5031133;28;20701;-65
2023/12/29 03:26:44;;;;;;;8.55;5.20;;;;;;;;;;5032120;28;20029;-65
2023/12/29 03:29:10;;;;;;;8.73;4.83;;;;;;;;;;5030631;28;20033;-65
2023/12/29 03:31:35;;;;;;;7.68;5.07;;;;;;;;;;5031631;28;20259;-65
2023/12/29 03:34:00;;;;;;;8.47;4.87;;;;;;;;;;5031903;28;20029;-65
2023/12/29 03:36:25;;;;;;;8.07;4.57;;;;;;;;;;5030914;28;20308;-65
2023/12/29 03:38:51;;;;;;;7.83;4.57;;;;;;;;;;5031603;28;20258;-65
2023/12/29 03:41:16;;;;;;;9.30;5.13;;;;;;;;;;5031091;28;20271;-65
2023/12/29 03:43:41;;;;;;;6.93;4.30;;;;;;;;;;5030743;28;20596;-65
2023/12/29 03:46:19;;;;;;;9.67;4.77;;;;;;;;;;5031520;28;20032;-65
2023/12/29 03:48:44;;;;;;;7.70;4.55;;;;;;;;;;5030905;28;20285;-65
2023/12/29 03:51:10;;;;;;;5.35;4.05;;;;;;;;;;5031713;28;20009;-65
2023/12/29 03:53:35;;;;;;;7.53;4.40;;;;;;;;;;5032002;28;20032;-65
2023/12/29 03:56:12;;;;;;;6.05;4.20;;;;;;;;;;5030704;28;20271;-67
2023/12/29 03:58:37;;;;;;;6.43;3.92;;;;;;;;;;5029314;28;20028;-68
2023/12/29 04:01:03;;;;;;;7.03;4.60;;;;;;;;;;5030943;28;20033;-67
2023/12/29 04:03:28;;;;;;;6.28;3.75;;;;;;;;;;5031243;28;20267;-68
2023/12/29 04:05:53;;;;;;;6.73;4.13;;;;;;;;;;5030362;28;20382;-68
2023/12/29 04:08:18;;;;;;;7.03;4.07;;;;;;;;;;5030636;28;20783;-67
2023/12/29 04:10:44;;;;;;;6.25;4.32;;;;;;;;;;5031469;28;20017;-68
2023/12/29 04:13:09;;;;;;;6.53;4.20;;;;;;;;;;5031267;28;20018;-68
2023/12/29 04:15:34;;;;;;;6.35;4.18;;;;;;;;;;5031201;28;20284;-68
2023/12/29 04:17:59;;;;;;;6.67;4.07;;;;;;;;;;5034639;28;20050;-67
2023/12/29 04:20:25;;;;;;;6.43;3.77;;;;;;;;;;5035320;28;20274;-68
2023/12/29 04:22:50;;;;;;;6.97;3.67;;;;;;;;;;5034672;28;20305;-67
2023/12/29 04:25:15;;;;;;;5.63;3.85;;;;;;;;;;5035181;28;20037;-67
2023/12/29 04:27:41;;;;;;;7.78;4.40;;;;;;;;;;5035113;28;20033;-68
2023/12/29 04:30:06;;;;;;;7.40;3.92;;;;;;;;;;5034718;28;20486;-67
2023/12/29 04:32:31;;;;;;;6.47;3.60;;;;;;;;;;5035204;28;20026;-68
2023/12/29 04:34:57;;;;;;;5.18;3.70;;;;;;;;;;5034864;28;20018;-68
2023/12/29 04:37:22;;;;;;;8.47;4.20;;;;;;;;;;5034109;28;20104;-68
2023/12/29 04:39:47;;;;;;;6.60;3.50;;;;;;;;;;5034809;28;20349;-68
2023/12/29 04:42:12;;;;;;;6.77;4.07;;;;;;;;;;5035136;28;20353;-68
2023/12/29 04:44:37;;;;;;;4.53;3.47;;;;;;;;;;5034318;28;20394;-67
2023/12/29 04:47:03;;;;;;;5.37;3.77;;;;;;;;;;5035325;28;20148;-67
2023/12/29 04:49:29;;;;;;;6.47;4.03;;;;;;;;;;5034123;28;20044;-67
2023/12/29 04:51:54;;;;;;;6.03;3.47;;;;;;;;;;5034273;28;20360;-68
2023/12/29 04:54:19;;;;;;;4.20;3.25;;;;;;;;;;5033078;28;20014;-67
2023/12/29 04:56:44;;;;;;;5.00;3.53;;;;;;;;;;5033883;28;20036;-67
2023/12/29 04:59:09;;;;;;;5.50;3.13;;;;;;;;;;5034589;28;20281;-68
2023/12/29 05:01:35;;;;;;;5.17;3.60;;;;;;;;;;5034815;28;20258;-68
2023/12/29 05:04:00;;;;;;;6.13;3.53;;;;;;;;;;5034061;28;20270;-67
2023/12/29 05:06:25;;;;;;;5.47;3.70;;;;;;;;;;5034956;28;20083;-67
2023/12/29 05:08:50;;;;;;;6.00;3.85;;;;;;;;;;5034292;28;20826;-68
2023/12/29 05:11:16;;;;;;;5.67;3.83;;;;;;;;;;5033426;28;20028;-67
2023/12/29 05:13:41;;;;;;;5.88;3.25;;;;;;;;;;5033695;28;20631;-67
2023/12/29 05:16:07;;;;;;;5.93;3.40;;;;;;;;;;5032698;28;20132;-68
2023/12/29 05:18:32;;;;;;;5.05;3.35;;;;;;;;;;5033343;28;20352;-68
2023/12/29 05:20:57;;;;;;;6.87;3.10;;;;;;;;;;5033504;28;20029;-68
2023/12/29 05:23:22;;;;;;;6.83;3.83;;;;;;;;;;5033976;28;20277;-68
2023/12/29 05:25:47;;;;;;;7.87;3.60;;;;;;;;;;5033430;28;20277;-68
2023/12/29 05:28:13;;;;;;;5.40;3.60;;;;;;;;;;5033754;28;20294;-68
2023/12/29 05:30:38;;;;;;;6.43;3.17;;;;;;;;;;5033226;28;20261;-68
2023/12/29 05:33:03;;;;;;;3.80;2.77;;;;;;;;;;5033798;28;20254;-68
2023/12/29 05:35:28;;;;;;;8.15;3.85;;;;;;;;;;5033853;28;20277;-71
2023/12/29 05:37:53;;;;;;;4.90;3.37;;;;;;;;;;5033098;28;20033;-73
2023/12/29 05:40:19;;;;;;;4.27;3.13;;;;;;;;;;5033630;28;20297;-70
2023/12/29 05:42:44;;;;;;;6.07;3.53;;;;;;;;;;5033034;28;20295;-70
2023/12/29 05:45:09;;;;;;;7.00;4.00;;;;;;;;;;5019887;28;20283;-70
2023/12/29 05:47:34;;;;;;;6.50;3.50;;;;;;;;;;5015696;28;20025;-70
2023/12/29 05:50:00;;;;;;;8.20;3.97;;;;;;;;;;5015621;28;20243;-70
2023/12/29 05:52:25;;;;;;;8.90;3.65;;;;;;;;;;5015899;28;20247;-70
2023/12/29 05:54:50;;;;;;;4.30;3.13;;;;;;;;;;5015573;28;20383;-70
2023/12/29 05:57:16;;;;;;;5.97;3.40;;;;;;;;;;5015544;28;20255;-70
2023/12/29 05:59:41;;;;;;;6.28;3.97;;;;;;;;;;5015429;28;20248;-70
2023/12/29 06:02:06;;;;;;;7.07;3.40;;;;;;;;;;5015391;28;20034;-70
2023/12/29 06:04:31;;;;;;;7.53;3.57;;;;;;;;;;5015379;28;20255;-70
2023/12/29 06:06:56;;;;;;;5.87;3.17;;;;;;;;;;5015363;28;20251;-70
2023/12/29 06:09:22;;;;;;;5.00;3.37;;;;;;;;;;5015255;28;20282;-70
2023/12/29 06:11:47;;;;;;;6.85;3.38;;;;;;;;;;5015213;28;20243;-70
2023/12/29 06:14:12;;;;;;;4.93;3.80;;;;;;;;;;5015170;28;20466;-70
2023/12/29 06:16:37;;;;;;;4.80;3.33;;;;;;;;;;5015088;28;20636;-64
2023/12/29 06:19:03;;;;;;;7.83;3.90;;;;;;;;;;5015258;28;20243;-64
2023/12/29 06:21:28;;;;;;;4.60;3.23;;;;;;;;;;5015136;28;20614;-64
2023/12/29 06:23:53;;;;;;;4.60;3.23;;;;;;;;;;5015203;28;20790;-64
2023/12/29 06:26:19;;;;;;;8.63;3.33;;;;;;;;;;5015015;28;20247;-64
2023/12/29 06:28:45;;;;;;;6.00;3.05;;;;;;;;;;5014879;28;20287;-64
2023/12/29 06:31:10;;;;;;;5.05;3.45;;;;;;;;;;5013633;28;20097;-64
2023/12/29 06:33:36;;;;;;;6.53;2.95;;;;;;;;;;5014898;28;20049;-64
2023/12/29 06:36:01;;;;;;;7.30;3.35;;;;;;;;;;5015111;28;20024;-64
2023/12/29 06:38:26;;;;;;;5.70;3.33;;;;;;;;;;5014324;28;20022;-64
2023/12/29 06:40:51;;;;;;;4.77;2.93;;;;;;;;;;5014611;28;20045;-64
2023/12/29 06:43:17;;;;;;;4.10;3.08;;;;;;;;;;5014703;28;20247;-64
2023/12/29 06:45:42;;;;;;;4.37;3.07;;;;;;;;;;5014606;28;20148;-64
2023/12/29 06:48:07;;;;;;;3.58;2.72;;;;;;;;;;5014513;28;20373;-64
2023/12/29 06:50:32;;;;;;;7.30;3.57;;;;;;;;;;5014570;28;20029;-64
2023/12/29 06:52:58;;;;;;;6.75;3.30;;;;;;;;;;5014526;28;20255;-63
2023/12/29 06:55:24;;;;;;;4.50;3.07;;;;;;;;;;5014482;28;20018;-64
2023/12/29 06:57:49;;;;;;;5.50;3.20;;;;;;;;;;5014406;28;20255;-64
2023/12/29 07:00:14;;;;;;;7.18;3.20;;;;;;;;;;5014646;28;20024;-64
2023/12/29 07:02:40;;;;;;;9.07;3.88;;;;;;;;;;5014610;28;20030;-64
2023/12/29 07:05:06;;;;;;;5.25;3.10;;;;;;;;;;5014549;28;20018;-64
2023/12/29 07:07:31;;;;;;;6.00;3.25;;;;;;;;;;5014496;28;20363;-64
2023/12/29 07:09:56;;;;;;;4.97;2.93;;;;;;;;;;5014196;28;20018;-64
2023/12/29 07:12:21;;;;;;;4.77;3.20;;;;;;;;;;5014195;28;20286;-64
2023/12/29 07:14:46;;;;;;;3.33;2.60;;;;;;;;;;5013900;28;20243;-64
2023/12/29 07:17:12;;;;;;;7.57;3.00;;;;;;;;;;5014523;28;20354;-64
2023/12/29 07:19:37;;;;;;;3.80;2.97;;;;;;;;;;5014042;28;20017;-64
2023/12/29 07:22:03;;;;;;;4.07;2.80;;;;;;;;;;5014056;28;20742;-64
2023/12/29 07:24:30;;;;;;;10.23;3.28;;;;;;;;;;5013860;28;20342;-64
2023/12/29 07:26:55;;;;;;;5.50;2.53;;;;;;;;;;5014133;28;20014;-64
2023/12/29 07:29:20;;;;;;;3.97;2.65;;;;;;;;;;5014086;28;20275;-64
2023/12/29 07:31:46;;;;;;;5.17;2.77;;;;;;;;;;5014151;28;20056;-63
2023/12/29 07:34:11;;;;;;;4.00;2.43;;;;;;;;;;5013816;28;20279;-64
2023/12/29 07:36:40;;;;;;;5.53;2.53;;;;;;;;;;5013832;28;20294;-64
2023/12/29 07:39:05;;;;;;;6.35;2.45;;;;;;;;;;5013731;28;20030;-64
2023/12/29 07:41:30;;;;;;;6.88;2.72;;;;;;;;;;5013764;28;20032;-64
2023/12/29 07:43:56;;;;;;;5.93;2.60;;;;;;;;;;5013795;28;20033;-64
2023/12/29 07:46:27;;;;;;;3.73;2.10;;;;;;;;;;5013677;28;20240;-64
2023/12/29 07:48:52;;;;;;;4.68;2.55;;;;;;;;;;5013548;28;20349;-64
2023/12/29 07:51:18;;;;;;;3.47;2.33;;;;;;;;;;5013611;28;20164;-64
2023/12/29 07:53:43;;;;;;;7.88;2.22;;;;;;;;;;5013558;28;20020;-64
2023/12/29 07:56:09;;;;;;;5.70;2.43;;;;;;;;;;5013808;28;20458;-64
2023/12/29 07:58:35;;;;;;;3.10;2.28;;;;;;;;;;5013560;28;20318;-64
2023/12/29 08:01:00;;;;;;;4.70;2.50;;;;;;;;;;5013530;28;20022;-64
2023/12/29 08:03:26;;;;;;;2.47;1.90;;;;;;;;;;5013557;28;20033;-64
2023/12/29 08:05:51;;;;;;;4.53;2.55;;;;;;;;;;5013426;28;20033;-64
2023/12/29 08:08:17;;;;;;;4.03;2.13;;;;;;;;;;5013609;28;20021;-64
2023/12/29 08:10:42;;;;;;;3.17;2.10;;;;;;;;;;5013706;28;20258;-64
2023/12/29 08:13:09;;;;;;;2.80;1.83;;;;;;;;;;5013591;28;20283;-64
2023/12/29 08:15:34;;;;;;;3.88;1.98;;;;;;;;;;5013182;28;20046;-64
2023/12/29 08:17:59;;;;;;;3.97;2.10;;;;;;;;;;5013421;28;20025;-64
2023/12/29 08:20:25;;;;;;;3.33;1.87;;;;;;;;;;5013422;28;20251;-64
2023/12/29 08:22:50;;;;;;;4.00;1.92;;;;;;;;;;5013274;28;20254;-64
2023/12/29 08:25:15;;;;;;;5.07;2.00;;;;;;;;;;5013285;28;20072;-64
2023/12/29 08:27:41;;;;;;;1.90;1.50;;;;;;;;;;5013233;28;20292;-63
2023/12/29 08:30:06;;;;;;;3.90;2.00;;;;;;;;;;5013193;28;20061;-63
2023/12/29 08:32:33;;;;;;;6.45;2.10;;;;;;;;;;5013161;28;20026;-63
2023/12/29 08:34:58;;;;;;;2.63;1.50;;;;;;;;;;5013593;28;20473;-70
2023/12/29 08:37:23;;;;;;;2.43;1.40;;;;;;;;;;5013276;28;20026;-70
2023/12/29 08:39:49;;;;;;;2.87;2.07;;;;;;;;;;5013116;28;20313;-70
2023/12/29 08:42:14;;;;;;;5.57;1.90;;;;;;;;;;5013135;28;20302;-70
2023/12/29 08:44:39;;;;;;;2.75;1.92;;;;;;;;;;5013149;28;20028;-70
2023/12/29 08:47:08;;;;;;;3.67;2.40;;;;;;;;;;5013383;28;20474;-70
2023/12/29 08:49:33;;;;;;;3.35;2.20;;;;;;;;;;5013258;28;20470;-70
2023/12/29 08:51:58;;;;;;;4.43;1.95;;;;;;;;;;5013182;28;20110;-70
2023/12/29 08:54:23;;;;;;;2.87;1.67;;;;;;;;;;5012994;28;20026;-70
2023/12/29 08:56:49;;;;;;;3.53;2.00;;;;;;;;;;5012968;28;20302;-70
2023/12/29 08:59:14;;;;;;;2.83;1.93;;;;;;;;;;5013013;28;20310;-70
2023/12/29 09:01:39;;;;;;;3.47;2.00;;;;;;;;;;5013151;28;20661;-70
2023/12/29 09:04:05;;;;;;;6.72;1.50;;;;;;;;;;5016617;28;20334;-70
2023/12/29 09:06:30;;;;;;;3.90;1.80;;;;;;;;;;5016555;28;20521;-70
2023/12/29 09:08:55;;;;;;;2.70;1.93;;;;;;;;;;5016473;28;20787;-70
2023/12/29 09:11:20;;;;;;;4.10;2.00;;;;;;;;;;5016657;28;20093;-70
2023/12/29 09:13:45;;;;;;;5.60;2.10;;;;;;;;;;5016337;28;20088;-70
2023/12/29 09:16:11;;;;;;;3.03;1.90;;;;;;;;;;5016188;28;20639;-70
2023/12/29 09:18:36;;;;;;;2.10;1.50;;;;;;;;;;5016303;28;20734;-70
2023/12/29 09:21:01;;;;;;;5.43;1.63;;;;;;;;;;5016331;28;20255;-70
2023/12/29 09:23:26;;;;;;;3.77;1.73;;;;;;;;;;5016260;28;20720;-70
2023/12/29 09:25:51;;;;;;;4.70;1.90;;;;;;;;;;5016120;28;20256;-70
2023/12/29 09:28:17;;;;;;;1.97;1.37;;;;;;;;;;5016028;28;20026;-70
2023/12/29 09:30:42;;;;;;;2.03;1.50;;;;;;;;;;5016053;28;20309;-70
2023/12/29 09:33:10;;;;;;;2.47;1.65;;;;;;;;;;5016051;28;20342;-70
2023/12/29 09:35:35;;;;;;;2.72;1.77;;;;;;;;;;5015930;28;20018;-70
2023/12/29 09:38:01;;;;;;;1.95;1.48;;;;;;;;;;5016189;28;20099;-70
2023/12/29 09:40:27;;;;;;;4.53;1.73;;;;;;;;;;5016141;28;20038;-70
2023/12/29 09:42:52;;;;;;;3.55;1.67;;;;;;;;;;5015810;28;20014;-70
2023/12/29 09:45:22;;;;;;;1.85;1.33;;;;;;;;;;5016109;28;20105;-70
2023/12/29 09:47:47;;;;;;;2.63;1.42;;;;;;;;;;5015635;28;20036;-70
2023/12/29 09:50:13;;;;;;;2.30;1.52;;;;;;;;;;5016000;28;20022;-70
2023/12/29 09:52:39;;;;;;;2.65;1.50;;;;;;;;;;5015675;28;20018;-70
2023/12/29 09:55:05;;;;;;;5.75;1.73;;;;;;;;;;5015664;28;20072;-70
2023/12/29 09:57:30;;;;;;;2.15;1.63;;;;;;;;;;5015796;28;20042;-70
2023/12/29 09:59:56;;;;;;;2.17;1.70;;;;;;;;;;5014315;28;20105;-70
2023/12/29 10:02:24;;;;;;;5.55;1.85;;;;;;;;;;5015777;28;20378;-70
2023/12/29 10:04:49;;;;;;;2.25;1.40;;;;;;;;;;5015496;28;20068;-70
2023/12/29 10:07:24;;;;;;;5.75;1.75;;;;;;;;;;5015429;28;20018;-70
2023/12/29 10:09:52;;;;;;;2.85;1.45;;;;;;;;;;5015272;28;20028;-70
2023/12/29 10:12:19;;;;;;;1.65;1.40;;;;;;;;;;5015560;28;20049;-70
2023/12/29 10:14:47;;;;;;;2.15;1.33;;;;;;;;;;5014208;28;20041;-70
2023/12/29 10:17:17;;;;;;;6.07;1.83;;;;;;;;;;5015189;28;20097;-70
2023/12/29 10:19:50;;;;;;;2.72;1.20;;;;;;;;;;5015170;28;20109;-70
2023/12/29 10:22:20;;;;;;;3.45;1.83;;;;;;;;;;5015054;28;20025;-70
2023/12/29 10:24:46;;;;;;;2.67;1.50;;;;;;;;;;5015079;28;20033;-70
2023/12/29 10:27:12;;;;;;;2.03;1.38;;;;;;;;;;5015035;28;20021;-70
2023/12/29 10:29:37;;;;;;;4.28;1.60;;;;;;;;;;5014933;28;20347;-70
2023/12/29 10:32:03;;;;;;;4.50;1.17;;;;;;;;;;5014865;28;20067;-70
2023/12/29 10:34:28;;;;;;;1.65;1.10;;;;;;;;;;5014884;28;20026;-70
2023/12/29 10:36:54;;;;;;;3.65;1.40;;;;;;;;;;5015102;28;20478;-70
2023/12/29 10:39:19;;;;;;;5.25;1.20;;;;;;;;;;5014801;28;20421;-70
2023/12/29 10:41:44;;;;;;;2.75;1.20;;;;;;;;;;5014742;28;20030;-70
2023/12/29 10:44:10;;;;;;;2.17;1.60;;;;;;;;;;5014723;28;20025;-70
2023/12/29 10:46:35;;;;;;;2.40;1.20;;;;;;;;;;5014640;28;20359;-70
2023/12/29 10:49:11;;;;;;;3.97;1.52;;;;;;;;;;5014528;28;20759;-70
2023/12/29 10:51:37;;;;;;;3.47;1.40;;;;;;;;;;5014564;28;20037;-70
2023/12/29 10:54:02;;;;;;;1.55;0.95;;;;;;;;;;5014549;28;20021;-70
2023/12/29 10:56:28;;;;;;;1.98;1.30;;;;;;;;;;5014788;28;20060;-70
2023/12/29 10:58:57;;;;;;;1.27;1.02;;;;;;;;;;5014713;28;20029;-70
2023/12/29 11:01:23;;;;;;;1.52;1.20;;;;;;;;;;5014427;28;20017;-70
2023/12/29 11:03:57;;;;;;;3.33;1.55;;;;;;;;;;5014340;28;20386;-70
2023/12/29 11:06:22;;;;;;;1.38;1.27;;;;;;;;;;5014317;28;20033;-70
2023/12/29 11:08:47;;;;;;;1.93;1.50;;;;;;;;;;5014199;28;20374;-70
2023/12/29 11:11:13;;;;;;;2.47;1.50;;;;;;;;;;5014508;28;20607;-70
2023/12/29 11:13:39;;;;;;;1.75;1.25;;;;;;;;;;5014086;28;20247;-70
2023/12/29 11:16:04;;;;;;;2.50;1.70;;;;;;;;;;5014022;28;20044;-70
2023/12/29 11:18:29;;;;;;;3.40;1.30;;;;;;;;;;5014174;28;20060;-70
2023/12/29 11:20:56;;;;;;;3.53;1.70;;;;;;;;;;5027175;28;20025;-70
2023/12/29 11:23:21;;;;;;;3.88;1.63;;;;;;;;;;5029896;28;20029;-70
2023/12/29 11:25:47;;;;;;;2.30;1.60;;;;;;;;;;5030503;28;20048;-70
2023/12/29 11:28:12;;;;;;;2.83;1.45;;;;;;;;;;5030693;28;20651;-70
2023/12/29 11:30:39;;;;;;;1.58;1.40;;;;;;;;;;5031813;28;20100;-70
2023/12/29 11:33:23;;;;;;;7.03;1.92;;;;;;;;;;5032295;28;20110;-70
2023/12/29 11:35:51;;;;;;;3.90;1.92;;;;;;;;;;5031486;28;20017;-71
2023/12/29 11:38:33;;;;;;;2.45;1.50;;;;;;;;;;5031389;28;20024;-68
2023/12/29 11:41:01;;;;;;;4.95;1.85;;;;;;;;;;5027263;28;20021;-70
2023/12/29 11:43:26;;;;;;;3.13;1.65;;;;;;;;;;5027511;28;20021;-69
2023/12/29 11:45:51;;;;;;;3.95;1.95;;;;;;;;;;5030296;28;20124;-70
2023/12/29 11:48:36;;;;;;;2.60;2.03;;;;;;;;;;5027330;28;20543;-71
2023/12/29 11:51:21;;;;;;;2.67;1.60;;;;;;;;;;5018972;28;20029;-71
2023/12/29 11:53:47;;;;;;;3.25;1.92;;;;;;;;;;5033269;28;20022;-71
2023/12/29 11:56:15;;;;;;;3.03;2.20;;;;;;;;;;5033310;28;20028;-71
2023/12/29 11:58:40;;;;;;;3.63;2.00;;;;;;;;;;5033568;28;20478;-71
2023/12/29 12:01:06;;;;;;;5.13;2.00;;;;;;;;;;5033266;28;20030;-71
2023/12/29 12:03:34;;;;;;;2.80;1.80;;;;;;;;;;5033229;28;20246;-71
2023/12/29 12:06:02;;;;;;;3.10;2.10;;;;;;;;;;5033336;28;20247;-66
2023/12/29 12:08:29;;;;;;;2.22;1.65;;;;;;;;;;5033156;28;20025;-65
2023/12/29 12:10:55;;;;;;;3.15;2.08;;;;;;;;;;5033446;28;20049;-65
2023/12/29 12:13:38;;;;;;;3.63;1.80;;;;;;;;;;5033337;28;20033;-66
2023/12/29 12:16:03;;;;;;;2.92;1.95;;;;;;;;;;5033081;28;20526;-65
2023/12/29 12:18:29;;;;;;;3.80;2.13;;;;;;;;;;5033394;28;20101;-65
2023/12/29 12:20:55;;;;;;;3.50;2.00;;;;;;;;;;5033054;28;20018;-65
2023/12/29 12:23:21;;;;;;;2.30;1.58;;;;;;;;;;5033061;28;20036;-66
2023/12/29 12:25:49;;;;;;;3.40;1.75;;;;;;;;;;5033069;28;20040;-65
2023/12/29 12:28:14;;;;;;;2.92;1.42;;;;;;;;;;5032972;28;20112;-65
2023/12/29 12:30:40;;;;;;;3.95;1.92;;;;;;;;;;5033252;28;20041;-65
2023/12/29 12:33:05;;;;;;;1.70;1.60;;;;;;;;;;5033278;28;20020;-66
2023/12/29 12:35:30;;;;;;;2.40;1.52;;;;;;;;;;5032916;28;20103;-66
2023/12/29 12:38:12;;;;;;;4.28;2.15;;;;;;;;;;5035217;28;20044;-66
2023/12/29 12:40:38;;;;;;;2.77;1.70;;;;;;;;;;5037080;28;20100;-66
2023/12/29 12:43:03;;;;;;;7.75;2.13;;;;;;;;;;5037163;28;20049;-66
2023/12/29 12:45:29;;;;;;;5.97;2.55;;;;;;;;;;5036692;28;20377;-66
2023/12/29 12:47:59;;;;;;;3.08;2.03;;;;;;;;;;5036590;28;20397;-65
2023/12/29 12:50:25;;;;;;;4.15;2.25;;;;;;;;;;5036624;28;20018;-66
2023/12/29 12:52:52;;;;;;;3.40;2.15;;;;;;;;;;5036833;28;20021;-65
2023/12/29 12:55:17;;;;;;;3.90;1.88;;;;;;;;;;5036454;28;20090;-65
2023/12/29 12:57:43;;;;;;;2.97;1.85;;;;;;;;;;5036492;28;20017;-66
2023/12/29 13:00:09;;;;;;;5.97;2.00;;;;;;;;;;5036702;28;20076;-66
2023/12/29 13:02:35;;;;;;;3.70;1.92;;;;;;;;;;5036678;28;20500;-66
2023/12/29 13:05:05;;;;;;;2.22;1.65;;;;;;;;;;5036420;28;20029;-65
2023/12/29 13:07:30;;;;;;;3.45;2.00;;;;;;;;;;5036353;28;20117;-65
2023/12/29 13:09:56;;;;;;;3.50;1.55;;;;;;;;;;5036193;28;20124;-65
2023/12/29 13:12:21;;;;;;;2.60;1.25;;;;;;;;;;5036221;28;20045;-66
2023/12/29 13:14:46;;;;;;;2.50;1.33;;;;;;;;;;5036242;28;20018;-66
2023/12/29 13:17:14;;;;;;;3.88;1.35;;;;;;;;;;5035406;28;20029;-71
2023/12/29 13:19:40;;;;;;;3.33;1.33;;;;;;;;;;5031782;28;20152;-67
2023/12/29 13:22:06;;;;;;;7.22;1.67;;;;;;;;;;5034775;28;20032;-72
2023/12/29 13:24:32;;;;;;;1.85;1.08;;;;;;;;;;5033690;28;20466;-69
2023/12/29 13:27:01;;;;;;;2.65;1.20;;;;;;;;;;5034805;28;20032;-70
2023/12/29 13:29:29;;;;;;;2.10;1.45;;;;;;;;;;5034706;28;20487;-70
2023/12/29 13:31:56;;;;;;;2.38;1.40;;;;;;;;;;5034248;28;20466;-70
2023/12/29 13:34:27;;;;;;;2.03;1.30;;;;;;;;;;5032568;28;20021;-69
2023/12/29 13:37:01;;;;;;;1.92;1.00;;;;;;;;;;5035045;28;20101;-69
2023/12/29 13:39:30;;;;;;;4.40;1.20;;;;;;;;;;5035521;28;20076;-70
2023/12/29 13:41:55;;;;;;;2.00;0.93;;;;;;;;;;5035492;28;20478;-70
2023/12/29 13:44:21;;;;;;;2.92;1.00;;;;;;;;;;5035571;28;20021;-70
2023/12/29 13:46:47;;;;;;;1.90;1.10;;;;;;;;;;5035471;28;20076;-70
2023/12/29 13:49:15;;;;;;;4.05;1.27;;;;;;;;;;5035549;28;20058;-70
2023/12/29 13:51:40;;;;;;;2.63;1.08;;;;;;;;;;5035461;28;20025;-69
2023/12/29 13:54:06;;;;;;;2.45;1.00;;;;;;;;;;5035357;28;20385;-69
2023/12/29 13:56:31;;;;;;;1.92;1.00;;;;;;;;;;5035286;28;20025;-70
2023/12/29 13:58:56;;;;;;;4.85;1.00;;;;;;;;;;5035229;28;20025;-70
2023/12/29 14:01:22;;;;;;;4.25;1.13;;;;;;;;;;5035217;28;20022;-70
2023/12/29 14:03:54;;;;;;;3.45;0.98;;;;;;;;;;5035251;28;20026;-69
2023/12/29 14:06:20;;;;;;;;;;;;;;;;;;5035627;28;20017;-69
2023/12/29 14:08:46;;;;;;;3.53;1.23;;;;;;;;;;5034981;28;20423;-69
2023/12/29 14:11:11;;;;;;;3.55;1.00;;;;;;;;;;5035058;28;20029;-70
2023/12/29 14:13:43;;;;;;;3.83;1.05;;;;;;;;;;5033552;28;20028;-69
2023/12/29 14:16:08;;;;;;;;;;;;;;;;;;5035286;28;20057;-69
2023/12/29 14:18:37;;;;;;;5.57;1.30;;;;;;;;;;5034989;28;19905;-69
2023/12/29 14:21:02;;;;;;;4.13;0.95;;;;;;;;;;5034937;28;20021;-69
2023/12/29 14:23:27;;;;;;;10.18;1.23;;;;;;;;;;5034847;28;20029;-69
2023/12/29 14:25:52;;;;;;;4.00;1.17;;;;;;;;;;5033998;28;20100;-69
2023/12/29 14:28:22;;;;;;;4.53;1.13;;;;;;;;;;5034639;28;20306;-69
2023/12/29 14:30:47;;;;;;;3.92;1.23;;;;;;;;;;5034862;28;20013;-69
2023/12/29 14:33:12;;;;;;;2.03;0.95;;;;;;;;;;5034549;28;20022;-69
2023/12/29 14:35:38;;;;;;;3.42;1.05;;;;;;;;;;5034548;28;20021;-69
2023/12/29 14:38:03;;;;;;;1.70;0.82;;;;;;;;;;5032174;28;20056;-70